PWSweather.com
Personal Weather Stations
Station Observations

Tucson, AZ 85750

Lat: 32.31347, Lon: -110.825248

Elevation: 2745

Station Type: Davis Vantage Pro

http://www.cfsd16.org/schools/espererocanyon/weather_tracker.html

Latest ConditionsUpdated 11:00:16 PM MST Wednesday, Jul 23, 2014
Currently Today's Max Today's Min Today's Average
Temperature 88.6°F31.4°C 108.1°F42.3°C 81.7°F27.6°C 95.3°F35.2°C
Dew Point 61.1°F16.2°C 61.7°F16.5°C 52.7°F11.5°C 57.8°F14.3°C
Winds Calm Calm 9.0 mph ESE14.5 kmh ESE - 0.9 mph 1.4 kmh
Wind Gusts -- -- - -
Humidity 40% 50% 18% 30%
Pressure 29.71 in1006.1 mb 29.80 in1009.1 mb 29.63 in1003.4 mb -
Hour Temp Dew Point Humidity Winds Wind Gusts Pressure Precip Precip Rate Daily Precip Total
11:00 PM 88.6°F31.4°C 61.1°F16.2°C 40% Calm Calm -- 29.71 in1006.1 mb 0.00 in0.0 mm 0.00 in/hr0.0 mm/hr 0.00 in0.0 mm
10:55 PM 88.9°F31.6°C 61.4°F16.3°C 40% Calm Calm -- 29.71 in1006.1 mb 0.00 in0.0 mm 0.00 in/hr0.0 mm/hr 0.00 in0.0 mm
10:50 PM 89.0°F31.7°C 61.5°F16.4°C 40% Calm Calm -- 29.72 in1006.4 mb 0.00 in0.0 mm 0.00 in/hr0.0 mm/hr 0.00 in0.0 mm
10:45 PM 89.2°F31.8°C 61.0°F16.1°C 39% Calm Calm -- 29.72 in1006.4 mb 0.00 in0.0 mm 0.00 in/hr0.0 mm/hr 0.00 in0.0 mm
10:40 PM 89.3°F31.8°C 61.1°F16.2°C 39% Calm Calm -- 29.72 in1006.4 mb 0.00 in0.0 mm 0.00 in/hr0.0 mm/hr 0.00 in0.0 mm
10:35 PM 89.4°F31.9°C 61.1°F16.2°C 39% Calm Calm -- 29.72 in1006.4 mb 0.00 in0.0 mm 0.00 in/hr0.0 mm/hr 0.00 in0.0 mm
10:30 PM 89.5°F31.9°C 61.2°F16.2°C 39% Calm Calm -- 29.72 in1006.4 mb 0.00 in0.0 mm 0.00 in/hr0.0 mm/hr 0.00 in0.0 mm
10:25 PM 89.7°F32.1°C 61.4°F16.3°C 39% Calm Calm -- 29.72 in1006.4 mb 0.00 in0.0 mm 0.00 in/hr0.0 mm/hr 0.00 in0.0 mm
10:20 PM 89.8°F32.1°C 61.5°F16.4°C 39% Calm Calm -- 29.73 in1006.8 mb 0.00 in0.0 mm 0.00 in/hr0.0 mm/hr 0.00 in0.0 mm
10:15 PM 89.8°F32.1°C 60.8°F16.0°C 38% Calm Calm -- 29.73 in1006.8 mb 0.00 in0.0 mm 0.00 in/hr0.0 mm/hr 0.00 in0.0 mm
10:10 PM 89.9°F32.2°C 60.8°F16.0°C 38% Calm Calm -- 29.73 in1006.8 mb 0.00 in0.0 mm 0.00 in/hr0.0 mm/hr 0.00 in0.0 mm
10:05 PM 90.0°F32.2°C 60.9°F16.1°C 38% Calm Calm -- 29.73 in1006.8 mb 0.00 in0.0 mm 0.00 in/hr0.0 mm/hr 0.00 in0.0 mm
10:00 PM 90.1°F32.3°C 61.0°F16.1°C 38% Calm Calm -- 29.73 in1006.8 mb 0.00 in0.0 mm 0.00 in/hr0.0 mm/hr 0.00 in0.0 mm
09:55 PM 90.2°F32.3°C 61.1°F16.2°C 38% Calm Calm -- 29.73 in1006.8 mb 0.00 in0.0 mm 0.00 in/hr0.0 mm/hr 0.00 in0.0 mm
09:50 PM 90.3°F32.4°C 61.2°F16.2°C 38% Calm Calm -- 29.73 in1006.8 mb 0.00 in0.0 mm 0.00 in/hr0.0 mm/hr 0.00 in0.0 mm
09:45 PM 90.4°F32.4°C 61.3°F16.3°C 38% Calm Calm -- 29.73 in1006.8 mb 0.00 in0.0 mm 0.00 in/hr0.0 mm/hr 0.00 in0.0 mm
09:40 PM 90.5°F32.5°C 61.4°F16.3°C 38% Calm Calm -- 29.72 in1006.4 mb 0.00 in0.0 mm 0.00 in/hr0.0 mm/hr 0.00 in0.0 mm
09:35 PM 90.6°F32.6°C 61.5°F16.4°C 38% Calm Calm -- 29.72 in1006.4 mb 0.00 in0.0 mm 0.00 in/hr0.0 mm/hr 0.00 in0.0 mm
09:30 PM 90.7°F32.6°C 60.8°F16.0°C 37% Calm Calm -- 29.72 in1006.4 mb 0.00 in0.0 mm 0.00 in/hr0.0 mm/hr 0.00 in0.0 mm
09:25 PM 91.0°F32.8°C 61.1°F16.2°C 37% Calm Calm -- 29.72 in1006.4 mb 0.00 in0.0 mm 0.00 in/hr0.0 mm/hr 0.00 in0.0 mm
09:20 PM 91.5°F33.1°C 61.5°F16.4°C 37% Calm Calm -- 29.72 in1006.4 mb 0.00 in0.0 mm 0.00 in/hr0.0 mm/hr 0.00 in0.0 mm
09:15 PM 92.1°F33.4°C 61.3°F16.3°C 36% 1.0 mph W1.6 kmh W -- 29.72 in1006.4 mb 0.00 in0.0 mm 0.00 in/hr0.0 mm/hr 0.00 in0.0 mm
09:10 PM 92.6°F33.7°C 61.7°F16.5°C 36% 1.0 mph W1.6 kmh W -- 29.72 in1006.4 mb 0.00 in0.0 mm 0.00 in/hr0.0 mm/hr 0.00 in0.0 mm
09:05 PM 93.2°F34.0°C 61.4°F16.3°C 35% 1.0 mph W1.6 kmh W -- 29.73 in1006.8 mb 0.00 in0.0 mm 0.00 in/hr0.0 mm/hr 0.00 in0.0 mm
09:00 PM 93.9°F34.4°C 61.2°F16.2°C 34% Calm Calm -- 29.73 in1006.8 mb 0.00 in0.0 mm 0.00 in/hr0.0 mm/hr 0.00 in0.0 mm
08:55 PM 94.7°F34.8°C 61.1°F16.2°C 33% 1.0 mph WNW1.6 kmh WNW -- 29.71 in1006.1 mb 0.00 in0.0 mm 0.00 in/hr0.0 mm/hr 0.00 in0.0 mm
08:50 PM 95.4°F35.2°C 60.8°F16.0°C 32% Calm Calm -- 29.71 in1006.1 mb 0.00 in0.0 mm 0.00 in/hr0.0 mm/hr 0.00 in0.0 mm
08:45 PM 95.9°F35.5°C 60.3°F15.7°C 31% 2.0 mph W3.2 kmh W -- 29.71 in1006.1 mb 0.00 in0.0 mm 0.00 in/hr0.0 mm/hr 0.00 in0.0 mm
08:40 PM 95.8°F35.4°C 57.4°F14.1°C 28% Calm Calm -- 29.70 in1005.8 mb 0.00 in0.0 mm 0.00 in/hr0.0 mm/hr 0.00 in0.0 mm
08:35 PM 95.8°F35.4°C 57.4°F14.1°C 28% Calm Calm -- 29.69 in1005.4 mb 0.00 in0.0 mm 0.00 in/hr0.0 mm/hr 0.00 in0.0 mm
08:30 PM 95.8°F35.4°C 57.4°F14.1°C 28% 1.0 mph NE1.6 kmh NE -- 29.69 in1005.4 mb 0.00 in0.0 mm 0.00 in/hr0.0 mm/hr 0.00 in0.0 mm
08:25 PM 95.8°F35.4°C 57.4°F14.1°C 28% Calm Calm -- 29.68 in1005.1 mb 0.00 in0.0 mm 0.00 in/hr0.0 mm/hr 0.00 in0.0 mm
08:20 PM 95.8°F35.4°C 57.4°F14.1°C 28% Calm Calm -- 29.68 in1005.1 mb 0.00 in0.0 mm 0.00 in/hr0.0 mm/hr 0.00 in0.0 mm
08:15 PM 95.8°F35.4°C 57.4°F14.1°C 28% 4.0 mph ESE6.4 kmh ESE -- 29.68 in1005.1 mb 0.00 in0.0 mm 0.00 in/hr0.0 mm/hr 0.00 in0.0 mm
08:10 PM 95.7°F35.4°C 58.3°F14.6°C 29% Calm Calm -- 29.68 in1005.1 mb 0.00 in0.0 mm 0.00 in/hr0.0 mm/hr 0.00 in0.0 mm
08:05 PM 95.7°F35.4°C 58.3°F14.6°C 29% 1.0 mph E1.6 kmh E -- 29.68 in1005.1 mb 0.00 in0.0 mm 0.00 in/hr0.0 mm/hr 0.00 in0.0 mm
08:00 PM 95.7°F35.4°C 58.3°F14.6°C 29% 1.0 mph NE1.6 kmh NE -- 29.68 in1005.1 mb 0.00 in0.0 mm 0.00 in/hr0.0 mm/hr 0.00 in0.0 mm
07:55 PM 95.8°F35.4°C 58.4°F14.7°C 29% Calm Calm -- 29.68 in1005.1 mb 0.00 in0.0 mm 0.00 in/hr0.0 mm/hr 0.00 in0.0 mm
07:50 PM 95.8°F35.4°C 58.4°F14.7°C 29% 1.0 mph NE1.6 kmh NE -- 29.68 in1005.1 mb 0.00 in0.0 mm 0.00 in/hr0.0 mm/hr 0.00 in0.0 mm
07:45 PM 95.8°F35.4°C 58.4°F14.7°C 29% 1.0 mph E1.6 kmh E -- 29.68 in1005.1 mb 0.00 in0.0 mm 0.00 in/hr0.0 mm/hr 0.00 in0.0 mm
07:40 PM 95.9°F35.5°C 58.5°F14.7°C 29% 5.0 mph SE8.0 kmh SE -- 29.68 in1005.1 mb 0.00 in0.0 mm 0.00 in/hr0.0 mm/hr 0.00 in0.0 mm
07:35 PM 96.0°F35.6°C 58.6°F14.8°C 29% 1.0 mph ENE1.6 kmh ENE -- 29.67 in1004.7 mb 0.00 in0.0 mm 0.00 in/hr0.0 mm/hr 0.00 in0.0 mm
07:30 PM 96.0°F35.6°C 58.6°F14.8°C 29% Calm Calm -- 29.67 in1004.7 mb 0.00 in0.0 mm 0.00 in/hr0.0 mm/hr 0.00 in0.0 mm
07:25 PM 96.1°F35.6°C 58.6°F14.8°C 29% Calm Calm -- 29.67 in1004.7 mb 0.00 in0.0 mm 0.00 in/hr0.0 mm/hr 0.00 in0.0 mm
07:20 PM 96.2°F35.7°C 58.7°F14.8°C 29% Calm Calm -- 29.67 in1004.7 mb 0.00 in0.0 mm 0.00 in/hr0.0 mm/hr 0.00 in0.0 mm
07:15 PM 96.2°F35.7°C 58.7°F14.8°C 29% 2.0 mph NE3.2 kmh NE -- 29.66 in1004.4 mb 0.00 in0.0 mm 0.00 in/hr0.0 mm/hr 0.00 in0.0 mm
07:10 PM 96.4°F35.8°C 57.9°F14.4°C 28% 1.0 mph NE1.6 kmh NE -- 29.66 in1004.4 mb 0.00 in0.0 mm 0.00 in/hr0.0 mm/hr 0.00 in0.0 mm
07:05 PM 96.6°F35.9°C 58.1°F14.5°C 28% Calm Calm -- 29.66 in1004.4 mb 0.00 in0.0 mm 0.00 in/hr0.0 mm/hr 0.00 in0.0 mm
07:00 PM 96.9°F36.1°C 58.3°F14.6°C 28% 1.0 mph N1.6 kmh N -- 29.66 in1004.4 mb 0.00 in0.0 mm 0.00 in/hr0.0 mm/hr 0.00 in0.0 mm
06:55 PM 97.2°F36.2°C 58.6°F14.8°C 28% 2.0 mph E3.2 kmh E -- 29.66 in1004.4 mb 0.00 in0.0 mm 0.00 in/hr0.0 mm/hr 0.00 in0.0 mm
06:50 PM 97.6°F36.4°C 56.9°F13.8°C 26% 7.0 mph NE11.3 kmh NE -- 29.66 in1004.4 mb 0.00 in0.0 mm 0.00 in/hr0.0 mm/hr 0.00 in0.0 mm
06:45 PM 97.9°F36.6°C 57.1°F13.9°C 26% 6.0 mph E9.7 kmh E -- 29.66 in1004.4 mb 0.00 in0.0 mm 0.00 in/hr0.0 mm/hr 0.00 in0.0 mm
06:40 PM 98.2°F36.8°C 58.4°F14.7°C 27% 2.0 mph NNW3.2 kmh NNW -- 29.65 in1004.1 mb 0.00 in0.0 mm 0.00 in/hr0.0 mm/hr 0.00 in0.0 mm
06:35 PM 98.5°F36.9°C 58.7°F14.8°C 27% 2.0 mph E3.2 kmh E -- 29.65 in1004.1 mb 0.00 in0.0 mm 0.00 in/hr0.0 mm/hr 0.00 in0.0 mm
06:30 PM 99.0°F37.2°C 59.1°F15.1°C 27% 1.0 mph SE1.6 kmh SE -- 29.65 in1004.1 mb 0.00 in0.0 mm 0.00 in/hr0.0 mm/hr 0.00 in0.0 mm
06:25 PM 99.6°F37.6°C 58.6°F14.8°C 26% 1.0 mph E1.6 kmh E -- 29.65 in1004.1 mb 0.00 in0.0 mm 0.00 in/hr0.0 mm/hr 0.00 in0.0 mm
06:20 PM 100.3°F37.9°C 58.0°F14.4°C 25% 5.0 mph ESE8.0 kmh ESE -- 29.65 in1004.1 mb 0.00 in0.0 mm 0.00 in/hr0.0 mm/hr 0.00 in0.0 mm
06:15 PM 100.9°F38.3°C 57.4°F14.1°C 24% 9.0 mph ESE14.5 kmh ESE -- 29.65 in1004.1 mb 0.00 in0.0 mm 0.00 in/hr0.0 mm/hr 0.00 in0.0 mm
06:10 PM 101.1°F38.4°C 55.2°F12.9°C 22% 2.0 mph SE3.2 kmh SE -- 29.64 in1003.7 mb 0.00 in0.0 mm 0.00 in/hr0.0 mm/hr 0.00 in0.0 mm
06:05 PM 101.2°F38.4°C 55.3°F12.9°C 22% Calm Calm -- 29.64 in1003.7 mb 0.00 in0.0 mm 0.00 in/hr0.0 mm/hr 0.00 in0.0 mm
06:00 PM 101.3°F38.5°C 55.3°F12.9°C 22% 4.0 mph E6.4 kmh E -- 29.64 in1003.7 mb 0.00 in0.0 mm 0.00 in/hr0.0 mm/hr 0.00 in0.0 mm
05:55 PM 101.4°F38.6°C 55.4°F13.0°C 22% 2.0 mph ESE3.2 kmh ESE -- 29.64 in1003.7 mb 0.00 in0.0 mm 0.00 in/hr0.0 mm/hr 0.00 in0.0 mm
05:50 PM 101.4°F38.6°C 55.4°F13.0°C 22% 1.0 mph E1.6 kmh E -- 29.64 in1003.7 mb 0.00 in0.0 mm 0.00 in/hr0.0 mm/hr 0.00 in0.0 mm
05:45 PM 101.6°F38.7°C 56.8°F13.8°C 23% Calm Calm -- 29.63 in1003.4 mb 0.00 in0.0 mm 0.00 in/hr0.0 mm/hr 0.00 in0.0 mm
05:40 PM 101.8°F38.8°C 55.7°F13.2°C 22% 8.0 mph SE12.9 kmh SE -- 29.63 in1003.4 mb 0.00 in0.0 mm 0.00 in/hr0.0 mm/hr 0.00 in0.0 mm
05:35 PM 102.0°F38.9°C 55.9°F13.3°C 22% Calm Calm -- 29.63 in1003.4 mb 0.00 in0.0 mm 0.00 in/hr0.0 mm/hr 0.00 in0.0 mm
05:30 PM 102.3°F39.1°C 56.2°F13.4°C 22% Calm Calm -- 29.63 in1003.4 mb 0.00 in0.0 mm 0.00 in/hr0.0 mm/hr 0.00 in0.0 mm
05:25 PM 102.7°F39.3°C 56.5°F13.6°C 22% 1.0 mph SE1.6 kmh SE -- 29.63 in1003.4 mb 0.00 in0.0 mm 0.00 in/hr0.0 mm/hr 0.00 in0.0 mm
05:20 PM 103.2°F39.6°C 55.6°F13.1°C 21% 6.0 mph S9.7 kmh S -- 29.63 in1003.4 mb 0.00 in0.0 mm 0.00 in/hr0.0 mm/hr 0.00 in0.0 mm
05:15 PM 103.5°F39.7°C 55.9°F13.3°C 21% 3.0 mph NE4.8 kmh NE -- 29.63 in1003.4 mb 0.00 in0.0 mm 0.00 in/hr0.0 mm/hr 0.00 in0.0 mm
05:10 PM 103.7°F39.8°C 54.7°F12.6°C 20% Calm Calm -- 29.63 in1003.4 mb 0.00 in0.0 mm 0.00 in/hr0.0 mm/hr 0.00 in0.0 mm
05:05 PM 103.8°F39.9°C 53.4°F11.9°C 19% Calm Calm -- 29.63 in1003.4 mb 0.00 in0.0 mm 0.00 in/hr0.0 mm/hr 0.00 in0.0 mm
05:00 PM 103.9°F39.9°C 53.4°F11.9°C 19% Calm Calm -- 29.63 in1003.4 mb 0.00 in0.0 mm 0.00 in/hr0.0 mm/hr 0.00 in0.0 mm
04:55 PM 103.9°F39.9°C 53.4°F11.9°C 19% Calm Calm -- 29.63 in1003.4 mb 0.00 in0.0 mm 0.00 in/hr0.0 mm/hr 0.00 in0.0 mm
04:50 PM 104.1°F40.1°C 53.6°F12.0°C 19% Calm Calm -- 29.63 in1003.4 mb 0.00 in0.0 mm 0.00 in/hr0.0 mm/hr 0.00 in0.0 mm
04:45 PM 104.3°F40.2°C 53.8°F12.1°C 19% Calm Calm -- 29.63 in1003.4 mb 0.00 in0.0 mm 0.00 in/hr0.0 mm/hr 0.00 in0.0 mm
04:40 PM 104.7°F40.4°C 54.1°F12.3°C 19% 4.0 mph SSE6.4 kmh SSE -- 29.64 in1003.7 mb 0.00 in0.0 mm 0.00 in/hr0.0 mm/hr 0.00 in0.0 mm
04:35 PM 104.9°F40.5°C 54.2°F12.3°C 19% 1.0 mph SE1.6 kmh SE -- 29.64 in1003.7 mb 0.00 in0.0 mm 0.00 in/hr0.0 mm/hr 0.00 in0.0 mm
04:30 PM 105.0°F40.6°C 52.8°F11.6°C 18% 2.0 mph SE3.2 kmh SE -- 29.64 in1003.7 mb 0.00 in0.0 mm 0.00 in/hr0.0 mm/hr 0.00 in0.0 mm
04:25 PM 104.9°F40.5°C 52.8°F11.6°C 18% Calm Calm -- 29.64 in1003.7 mb 0.00 in0.0 mm 0.00 in/hr0.0 mm/hr 0.00 in0.0 mm
04:20 PM 104.8°F40.4°C 52.7°F11.5°C 18% Calm Calm -- 29.64 in1003.7 mb 0.00 in0.0 mm 0.00 in/hr0.0 mm/hr 0.00 in0.0 mm
04:15 PM 104.9°F40.5°C 54.2°F12.3°C 19% Calm Calm -- 29.64 in1003.7 mb 0.00 in0.0 mm 0.00 in/hr0.0 mm/hr 0.00 in0.0 mm
04:10 PM 105.2°F40.7°C 53.0°F11.7°C 18% 4.0 mph SE6.4 kmh SE -- 29.65 in1004.1 mb 0.00 in0.0 mm 0.00 in/hr0.0 mm/hr 0.00 in0.0 mm
04:05 PM 105.2°F40.7°C 54.5°F12.5°C 19% Calm Calm -- 29.65 in1004.1 mb 0.00 in0.0 mm 0.00 in/hr0.0 mm/hr 0.00 in0.0 mm
04:00 PM 105.2°F40.7°C 53.0°F11.7°C 18% Calm Calm -- 29.65 in1004.1 mb 0.00 in0.0 mm 0.00 in/hr0.0 mm/hr 0.00 in0.0 mm
03:55 PM 105.4°F40.8°C 53.2°F11.8°C 18% Calm Calm -- 29.65 in1004.1 mb 0.00 in0.0 mm 0.00 in/hr0.0 mm/hr 0.00 in0.0 mm
03:50 PM 105.9°F41.1°C 53.6°F12.0°C 18% 2.0 mph ESE3.2 kmh ESE -- 29.65 in1004.1 mb 0.00 in0.0 mm 0.00 in/hr0.0 mm/hr 0.00 in0.0 mm
03:45 PM 106.6°F41.4°C 54.1°F12.3°C 18% 4.0 mph SE6.4 kmh SE -- 29.66 in1004.4 mb 0.00 in0.0 mm 0.00 in/hr0.0 mm/hr 0.00 in0.0 mm
03:40 PM 106.6°F41.4°C 54.1°F12.3°C 18% Calm Calm -- 29.66 in1004.4 mb 0.00 in0.0 mm 0.00 in/hr0.0 mm/hr 0.00 in0.0 mm
03:35 PM 106.4°F41.3°C 54.0°F12.2°C 18% 3.0 mph N4.8 kmh N -- 29.66 in1004.4 mb 0.00 in0.0 mm 0.00 in/hr0.0 mm/hr 0.00 in0.0 mm
03:30 PM 106.3°F41.3°C 53.9°F12.2°C 18% 1.0 mph SSE1.6 kmh SSE -- 29.66 in1004.4 mb 0.00 in0.0 mm 0.00 in/hr0.0 mm/hr 0.00 in0.0 mm
03:25 PM 106.7°F41.5°C 54.2°F12.3°C 18% 7.0 mph ESE11.3 kmh ESE -- 29.66 in1004.4 mb 0.00 in0.0 mm 0.00 in/hr0.0 mm/hr 0.00 in0.0 mm
03:20 PM 107.2°F41.8°C 54.6°F12.6°C 18% 1.0 mph ESE1.6 kmh ESE -- 29.66 in1004.4 mb 0.00 in0.0 mm 0.00 in/hr0.0 mm/hr 0.00 in0.0 mm
03:15 PM 107.2°F41.8°C 54.6°F12.6°C 18% Calm Calm -- 29.65 in1004.1 mb 0.00 in0.0 mm 0.00 in/hr0.0 mm/hr 0.00 in0.0 mm
03:10 PM 107.2°F41.8°C 54.6°F12.6°C 18% Calm Calm -- 29.66 in1004.4 mb 0.00 in0.0 mm 0.00 in/hr0.0 mm/hr 0.00 in0.0 mm
03:05 PM 107.1°F41.7°C 54.5°F12.5°C 18% 1.0 mph NE1.6 kmh NE -- 29.66 in1004.4 mb 0.00 in0.0 mm 0.00 in/hr0.0 mm/hr 0.00 in0.0 mm
03:00 PM 107.2°F41.8°C 54.6°F12.6°C 18% 7.0 mph E11.3 kmh E -- 29.66 in1004.4 mb 0.00 in0.0 mm 0.00 in/hr0.0 mm/hr 0.00 in0.0 mm
02:55 PM 107.4°F41.9°C 54.8°F12.7°C 18% Calm Calm -- 29.66 in1004.4 mb 0.00 in0.0 mm 0.00 in/hr0.0 mm/hr 0.00 in0.0 mm
02:50 PM 107.6°F42.0°C 54.9°F12.7°C 18% 2.0 mph SE3.2 kmh SE -- 29.66 in1004.4 mb 0.00 in0.0 mm 0.00 in/hr0.0 mm/hr 0.00 in0.0 mm
02:45 PM 108.0°F42.2°C 55.2°F12.9°C 18% 6.0 mph SSE9.7 kmh SSE -- 29.66 in1004.4 mb 0.00 in0.0 mm 0.00 in/hr0.0 mm/hr 0.00 in0.0 mm
02:40 PM 108.1°F42.3°C 55.3°F12.9°C 18% 5.0 mph SE8.0 kmh SE -- 29.67 in1004.7 mb 0.00 in0.0 mm 0.00 in/hr0.0 mm/hr 0.00 in0.0 mm
02:35 PM 107.9°F42.2°C 55.2°F12.9°C 18% Calm Calm -- 29.67 in1004.7 mb 0.00 in0.0 mm 0.00 in/hr0.0 mm/hr 0.00 in0.0 mm
02:20 PM 107.3°F41.8°C 54.7°F12.6°C 18% Calm Calm -- 29.68 in1005.1 mb 0.00 in0.0 mm 0.00 in/hr0.0 mm/hr 0.00 in0.0 mm
02:15 PM 107.5°F41.9°C 54.8°F12.7°C 18% Calm Calm -- 29.68 in1005.1 mb 0.00 in0.0 mm 0.00 in/hr0.0 mm/hr 0.00 in0.0 mm
02:05 PM 107.7°F42.1°C 55.0°F12.8°C 18% Calm Calm -- 29.69 in1005.4 mb 0.00 in0.0 mm 0.00 in/hr0.0 mm/hr 0.00 in0.0 mm
02:00 PM 107.5°F41.9°C 54.8°F12.7°C 18% 1.0 mph ESE1.6 kmh ESE -- 29.70 in1005.8 mb 0.00 in0.0 mm 0.00 in/hr0.0 mm/hr 0.00 in0.0 mm
01:55 PM 107.4°F41.9°C 54.8°F12.7°C 18% 8.0 mph E12.9 kmh E -- 29.70 in1005.8 mb 0.00 in0.0 mm 0.00 in/hr0.0 mm/hr 0.00 in0.0 mm
01:40 PM 106.9°F41.6°C 54.4°F12.4°C 18% 4.0 mph SSE6.4 kmh SSE -- 29.71 in1006.1 mb 0.00 in0.0 mm 0.00 in/hr0.0 mm/hr 0.00 in0.0 mm
01:35 PM 106.9°F41.6°C 54.4°F12.4°C 18% 8.0 mph SE12.9 kmh SE -- 29.71 in1006.1 mb 0.00 in0.0 mm 0.00 in/hr0.0 mm/hr 0.00 in0.0 mm
01:30 PM 106.6°F41.4°C 55.6°F13.1°C 19% Calm Calm -- 29.71 in1006.1 mb 0.00 in0.0 mm 0.00 in/hr0.0 mm/hr 0.00 in0.0 mm
01:25 PM 106.3°F41.3°C 55.4°F13.0°C 19% 1.0 mph NE1.6 kmh NE -- 29.71 in1006.1 mb 0.00 in0.0 mm 0.00 in/hr0.0 mm/hr 0.00 in0.0 mm
01:20 PM 105.9°F41.1°C 55.0°F12.8°C 19% 2.0 mph E3.2 kmh E -- 29.71 in1006.1 mb 0.00 in0.0 mm 0.00 in/hr0.0 mm/hr 0.00 in0.0 mm
01:15 PM 106.0°F41.1°C 55.1°F12.8°C 19% 8.0 mph SE12.9 kmh SE -- 29.71 in1006.1 mb 0.00 in0.0 mm 0.00 in/hr0.0 mm/hr 0.00 in0.0 mm
01:10 PM 106.1°F41.2°C 55.2°F12.9°C 19% 3.0 mph N4.8 kmh N -- 29.72 in1006.4 mb 0.00 in0.0 mm 0.00 in/hr0.0 mm/hr 0.00 in0.0 mm
01:05 PM 106.5°F41.4°C 54.0°F12.2°C 18% 7.0 mph SSE11.3 kmh SSE -- 29.73 in1006.8 mb 0.00 in0.0 mm 0.00 in/hr0.0 mm/hr 0.00 in0.0 mm
01:00 PM 107.0°F41.7°C 54.4°F12.4°C 18% 4.0 mph SE6.4 kmh SE -- 29.73 in1006.8 mb 0.00 in0.0 mm 0.00 in/hr0.0 mm/hr 0.00 in0.0 mm
12:55 PM 107.2°F41.8°C 54.6°F12.6°C 18% Calm Calm -- 29.73 in1006.8 mb 0.00 in0.0 mm 0.00 in/hr0.0 mm/hr 0.00 in0.0 mm
12:50 PM 107.3°F41.8°C 56.2°F13.4°C 19% Calm Calm -- 29.73 in1006.8 mb 0.00 in0.0 mm 0.00 in/hr0.0 mm/hr 0.00 in0.0 mm
12:45 PM 107.2°F41.8°C 54.6°F12.6°C 18% 2.0 mph SE3.2 kmh SE -- 29.73 in1006.8 mb 0.00 in0.0 mm 0.00 in/hr0.0 mm/hr 0.00 in0.0 mm
12:40 PM 106.8°F41.6°C 55.8°F13.2°C 19% Calm Calm -- 29.74 in1007.1 mb 0.00 in0.0 mm 0.00 in/hr0.0 mm/hr 0.00 in0.0 mm
12:35 PM 106.7°F41.5°C 55.7°F13.2°C 19% 4.0 mph E6.4 kmh E -- 29.74 in1007.1 mb 0.00 in0.0 mm 0.00 in/hr0.0 mm/hr 0.00 in0.0 mm
12:30 PM 106.8°F41.6°C 55.8°F13.2°C 19% 5.0 mph SE8.0 kmh SE -- 29.74 in1007.1 mb 0.00 in0.0 mm 0.00 in/hr0.0 mm/hr 0.00 in0.0 mm
12:25 PM 106.8°F41.6°C 55.8°F13.2°C 19% 3.0 mph E4.8 kmh E -- 29.74 in1007.1 mb 0.00 in0.0 mm 0.00 in/hr0.0 mm/hr 0.00 in0.0 mm
12:20 PM 106.6°F41.4°C 55.6°F13.1°C 19% Calm Calm -- 29.74 in1007.1 mb 0.00 in0.0 mm 0.00 in/hr0.0 mm/hr 0.00 in0.0 mm
12:15 PM 106.3°F41.3°C 55.4°F13.0°C 19% 2.0 mph NNE3.2 kmh NNE -- 29.74 in1007.1 mb 0.00 in0.0 mm 0.00 in/hr0.0 mm/hr 0.00 in0.0 mm
12:10 PM 105.8°F41.0°C 55.0°F12.8°C 19% Calm Calm -- 29.75 in1007.5 mb 0.00 in0.0 mm 0.00 in/hr0.0 mm/hr 0.00 in0.0 mm
12:05 PM 105.4°F40.8°C 56.1°F13.4°C 20% Calm Calm -- 29.75 in1007.5 mb 0.00 in0.0 mm 0.00 in/hr0.0 mm/hr 0.00 in0.0 mm
12:00 PM 104.8°F40.4°C 56.9°F13.8°C 21% Calm Calm -- 29.75 in1007.5 mb 0.00 in0.0 mm 0.00 in/hr0.0 mm/hr 0.00 in0.0 mm
11:55 AM 104.4°F40.2°C 56.6°F13.7°C 21% 1.0 mph NE1.6 kmh NE -- 29.75 in1007.5 mb 0.00 in0.0 mm 0.00 in/hr0.0 mm/hr 0.00 in0.0 mm
11:50 AM 104.1°F40.1°C 56.3°F13.5°C 21% 2.0 mph NNW3.2 kmh NNW -- 29.75 in1007.5 mb 0.00 in0.0 mm 0.00 in/hr0.0 mm/hr 0.00 in0.0 mm
11:45 AM 103.9°F39.9°C 56.2°F13.4°C 21% 2.0 mph NE3.2 kmh NE -- 29.76 in1007.8 mb 0.00 in0.0 mm 0.00 in/hr0.0 mm/hr 0.00 in0.0 mm
11:40 AM 103.7°F39.8°C 56.0°F13.3°C 21% 1.0 mph SE1.6 kmh SE -- 29.76 in1007.8 mb 0.00 in0.0 mm 0.00 in/hr0.0 mm/hr 0.00 in0.0 mm
11:35 AM 103.5°F39.7°C 57.1°F13.9°C 22% Calm Calm -- 29.76 in1007.8 mb 0.00 in0.0 mm 0.00 in/hr0.0 mm/hr 0.00 in0.0 mm
11:30 AM 103.4°F39.7°C 57.1°F13.9°C 22% Calm Calm -- 29.76 in1007.8 mb 0.00 in0.0 mm 0.00 in/hr0.0 mm/hr 0.00 in0.0 mm
11:25 AM 103.1°F39.5°C 58.1°F14.5°C 23% 4.0 mph E6.4 kmh E -- 29.76 in1007.8 mb 0.00 in0.0 mm 0.00 in/hr0.0 mm/hr 0.00 in0.0 mm
11:20 AM 102.9°F39.4°C 57.9°F14.4°C 23% 3.0 mph SW4.8 kmh SW -- 29.76 in1007.8 mb 0.00 in0.0 mm 0.00 in/hr0.0 mm/hr 0.00 in0.0 mm
11:15 AM 102.4°F39.1°C 57.5°F14.2°C 23% Calm Calm -- 29.76 in1007.8 mb 0.00 in0.0 mm 0.00 in/hr0.0 mm/hr 0.00 in0.0 mm
11:10 AM 102.1°F38.9°C 57.2°F14.0°C 23% 1.0 mph SSW1.6 kmh SSW -- 29.76 in1007.8 mb 0.00 in0.0 mm 0.00 in/hr0.0 mm/hr 0.00 in0.0 mm
11:05 AM 102.2°F39.0°C 57.3°F14.1°C 23% 1.0 mph ESE1.6 kmh ESE -- 29.77 in1008.1 mb 0.00 in0.0 mm 0.00 in/hr0.0 mm/hr 0.00 in0.0 mm
11:00 AM 102.1°F38.9°C 58.4°F14.7°C 24% 5.0 mph S8.0 kmh S -- 29.76 in1007.8 mb 0.00 in0.0 mm 0.00 in/hr0.0 mm/hr 0.00 in0.0 mm
10:55 AM 102.1°F38.9°C 58.4°F14.7°C 24% 3.0 mph SSW4.8 kmh SSW -- 29.77 in1008.1 mb 0.00 in0.0 mm 0.00 in/hr0.0 mm/hr 0.00 in0.0 mm
10:50 AM 102.1°F38.9°C 58.4°F14.7°C 24% 1.0 mph SSE1.6 kmh SSE -- 29.76 in1007.8 mb 0.00 in0.0 mm 0.00 in/hr0.0 mm/hr 0.00 in0.0 mm
10:45 AM 101.8°F38.8°C 58.2°F14.6°C 24% Calm Calm -- 29.76 in1007.8 mb 0.00 in0.0 mm 0.00 in/hr0.0 mm/hr 0.00 in0.0 mm
10:40 AM 101.5°F38.6°C 59.1°F15.1°C 25% Calm Calm -- 29.76 in1007.8 mb 0.00 in0.0 mm 0.00 in/hr0.0 mm/hr 0.00 in0.0 mm
10:35 AM 101.3°F38.5°C 58.9°F14.9°C 25% Calm Calm -- 29.76 in1007.8 mb 0.00 in0.0 mm 0.00 in/hr0.0 mm/hr 0.00 in0.0 mm
10:30 AM 100.9°F38.3°C 59.6°F15.3°C 26% 1.0 mph S1.6 kmh S -- 29.77 in1008.1 mb 0.00 in0.0 mm 0.00 in/hr0.0 mm/hr 0.00 in0.0 mm
10:25 AM 100.6°F38.1°C 59.4°F15.2°C 26% Calm Calm -- 29.77 in1008.1 mb 0.00 in0.0 mm 0.00 in/hr0.0 mm/hr 0.00 in0.0 mm
10:20 AM 100.3°F37.9°C 59.1°F15.1°C 26% 2.0 mph SSE3.2 kmh SSE -- 29.77 in1008.1 mb 0.00 in0.0 mm 0.00 in/hr0.0 mm/hr 0.00 in0.0 mm
10:15 AM 100.0°F37.8°C 58.9°F14.9°C 26% 1.0 mph W1.6 kmh W -- 29.77 in1008.1 mb 0.00 in0.0 mm 0.00 in/hr0.0 mm/hr 0.00 in0.0 mm
10:10 AM 99.5°F37.5°C 59.5°F15.3°C 27% Calm Calm -- 29.77 in1008.1 mb 0.00 in0.0 mm 0.00 in/hr0.0 mm/hr 0.00 in0.0 mm
10:05 AM 99.2°F37.3°C 59.3°F15.2°C 27% 1.0 mph SW1.6 kmh SW -- 29.77 in1008.1 mb 0.00 in0.0 mm 0.00 in/hr0.0 mm/hr 0.00 in0.0 mm
10:00 AM 99.1°F37.3°C 59.2°F15.1°C 27% Calm Calm -- 29.77 in1008.1 mb 0.00 in0.0 mm 0.00 in/hr0.0 mm/hr 0.00 in0.0 mm
09:55 AM 98.9°F37.2°C 60.0°F15.6°C 28% Calm Calm -- 29.78 in1008.5 mb 0.00 in0.0 mm 0.00 in/hr0.0 mm/hr 0.00 in0.0 mm
09:50 AM 98.7°F37.1°C 59.9°F15.5°C 28% Calm Calm -- 29.78 in1008.5 mb 0.00 in0.0 mm 0.00 in/hr0.0 mm/hr 0.00 in0.0 mm
09:45 AM 98.4°F36.9°C 59.6°F15.3°C 28% Calm Calm -- 29.78 in1008.5 mb 0.00 in0.0 mm 0.00 in/hr0.0 mm/hr 0.00 in0.0 mm
09:40 AM 98.2°F36.8°C 59.4°F15.2°C 28% 1.0 mph S1.6 kmh S -- 29.78 in1008.5 mb 0.00 in0.0 mm 0.00 in/hr0.0 mm/hr 0.00 in0.0 mm
09:35 AM 97.9°F36.6°C 60.2°F15.7°C 29% Calm Calm -- 29.78 in1008.5 mb 0.00 in0.0 mm 0.00 in/hr0.0 mm/hr 0.00 in0.0 mm
09:30 AM 97.6°F36.4°C 59.9°F15.5°C 29% Calm Calm -- 29.78 in1008.5 mb 0.00 in0.0 mm 0.00 in/hr0.0 mm/hr 0.00 in0.0 mm
09:25 AM 97.0°F36.1°C 60.4°F15.8°C 30% Calm Calm -- 29.78 in1008.5 mb 0.00 in0.0 mm 0.00 in/hr0.0 mm/hr 0.00 in0.0 mm
09:20 AM 96.3°F35.7°C 59.8°F15.4°C 30% Calm Calm -- 29.78 in1008.5 mb 0.00 in0.0 mm 0.00 in/hr0.0 mm/hr 0.00 in0.0 mm
09:15 AM 95.5°F35.3°C 60.0°F15.6°C 31% Calm Calm -- 29.79 in1008.8 mb 0.00 in0.0 mm 0.00 in/hr0.0 mm/hr 0.00 in0.0 mm
09:10 AM 95.0°F35.0°C 59.6°F15.3°C 31% Calm Calm -- 29.78 in1008.5 mb 0.00 in0.0 mm 0.00 in/hr0.0 mm/hr 0.00 in0.0 mm
09:05 AM 94.7°F34.8°C 59.3°F15.2°C 31% Calm Calm -- 29.79 in1008.8 mb 0.00 in0.0 mm 0.00 in/hr0.0 mm/hr 0.00 in0.0 mm
09:00 AM 94.4°F34.7°C 59.9°F15.5°C 32% Calm Calm -- 29.79 in1008.8 mb 0.00 in0.0 mm 0.00 in/hr0.0 mm/hr 0.00 in0.0 mm
08:55 AM 94.1°F34.5°C 59.7°F15.4°C 32% Calm Calm -- 29.79 in1008.8 mb 0.00 in0.0 mm 0.00 in/hr0.0 mm/hr 0.00 in0.0 mm
08:50 AM 93.9°F34.4°C 59.5°F15.3°C 32% Calm Calm -- 29.79 in1008.8 mb 0.00 in0.0 mm 0.00 in/hr0.0 mm/hr 0.00 in0.0 mm
08:45 AM 93.6°F34.2°C 60.1°F15.6°C 33% Calm Calm -- 29.79 in1008.8 mb 0.00 in0.0 mm 0.00 in/hr0.0 mm/hr 0.00 in0.0 mm
08:40 AM 93.3°F34.1°C 59.9°F15.5°C 33% Calm Calm -- 29.79 in1008.8 mb 0.00 in0.0 mm 0.00 in/hr0.0 mm/hr 0.00 in0.0 mm
08:35 AM 93.1°F33.9°C 59.7°F15.4°C 33% Calm Calm -- 29.79 in1008.8 mb 0.00 in0.0 mm 0.00 in/hr0.0 mm/hr 0.00 in0.0 mm
08:30 AM 92.7°F33.7°C 60.2°F15.7°C 34% Calm Calm -- 29.79 in1008.8 mb 0.00 in0.0 mm 0.00 in/hr0.0 mm/hr 0.00 in0.0 mm
08:25 AM 92.3°F33.5°C 59.0°F15.0°C 33% Calm Calm -- 29.80 in1009.1 mb 0.00 in0.0 mm 0.00 in/hr0.0 mm/hr 0.00 in0.0 mm
08:20 AM 91.8°F33.2°C 60.2°F15.7°C 35% Calm Calm -- 29.80 in1009.1 mb 0.00 in0.0 mm 0.00 in/hr0.0 mm/hr 0.00 in0.0 mm
08:15 AM 91.3°F32.9°C 59.8°F15.4°C 35% Calm Calm -- 29.80 in1009.1 mb 0.00 in0.0 mm 0.00 in/hr0.0 mm/hr 0.00 in0.0 mm
08:10 AM 90.9°F32.7°C 59.4°F15.2°C 35% Calm Calm -- 29.80 in1009.1 mb 0.00 in0.0 mm 0.00 in/hr0.0 mm/hr 0.00 in0.0 mm
08:05 AM 90.4°F32.4°C 59.8°F15.4°C 36% Calm Calm -- 29.79 in1008.8 mb 0.00 in0.0 mm 0.00 in/hr0.0 mm/hr 0.00 in0.0 mm
08:00 AM 89.9°F32.2°C 59.3°F15.2°C 36% Calm Calm -- 29.79 in1008.8 mb 0.00 in0.0 mm 0.00 in/hr0.0 mm/hr 0.00 in0.0 mm
07:55 AM 89.3°F31.8°C 59.6°F15.3°C 37% Calm Calm -- 29.79 in1008.8 mb 0.00 in0.0 mm 0.00 in/hr0.0 mm/hr 0.00 in0.0 mm
07:50 AM 88.7°F31.5°C 59.8°F15.4°C 38% Calm Calm -- 29.79 in1008.8 mb 0.00 in0.0 mm 0.00 in/hr0.0 mm/hr 0.00 in0.0 mm
07:45 AM 88.0°F31.1°C 59.9°F15.5°C 39% Calm Calm -- 29.79 in1008.8 mb 0.00 in0.0 mm 0.00 in/hr0.0 mm/hr 0.00 in0.0 mm
07:40 AM 87.4°F30.8°C 59.4°F15.2°C 39% Calm Calm -- 29.79 in1008.8 mb 0.00 in0.0 mm 0.00 in/hr0.0 mm/hr 0.00 in0.0 mm
07:35 AM 86.7°F30.4°C 59.5°F15.3°C 40% Calm Calm -- 29.79 in1008.8 mb 0.00 in0.0 mm 0.00 in/hr0.0 mm/hr 0.00 in0.0 mm
07:30 AM 86.1°F30.1°C 59.6°F15.3°C 41% Calm Calm -- 29.79 in1008.8 mb 0.00 in0.0 mm 0.00 in/hr0.0 mm/hr 0.00 in0.0 mm
07:25 AM 85.6°F29.8°C 59.2°F15.1°C 41% Calm Calm -- 29.79 in1008.8 mb 0.00 in0.0 mm 0.00 in/hr0.0 mm/hr 0.00 in0.0 mm
07:20 AM 85.2°F29.6°C 60.1°F15.6°C 43% Calm Calm -- 29.79 in1008.8 mb 0.00 in0.0 mm 0.00 in/hr0.0 mm/hr 0.00 in0.0 mm
07:15 AM 84.7°F29.3°C 60.3°F15.7°C 44% Calm Calm -- 29.79 in1008.8 mb 0.00 in0.0 mm 0.00 in/hr0.0 mm/hr 0.00 in0.0 mm
07:10 AM 84.3°F29.1°C 60.6°F15.9°C 45% Calm Calm -- 29.78 in1008.5 mb 0.00 in0.0 mm 0.00 in/hr0.0 mm/hr 0.00 in0.0 mm
07:05 AM 83.9°F28.8°C 60.3°F15.7°C 45% Calm Calm -- 29.79 in1008.8 mb 0.00 in0.0 mm 0.00 in/hr0.0 mm/hr 0.00 in0.0 mm
07:00 AM 83.5°F28.6°C 60.5°F15.8°C 46% Calm Calm -- 29.79 in1008.8 mb 0.00 in0.0 mm 0.00 in/hr0.0 mm/hr 0.00 in0.0 mm
06:55 AM 83.0°F28.3°C 60.1°F15.6°C 46% Calm Calm -- 29.78 in1008.5 mb 0.00 in0.0 mm 0.00 in/hr0.0 mm/hr 0.00 in0.0 mm
06:50 AM 82.6°F28.1°C 60.9°F16.1°C 48% Calm Calm -- 29.78 in1008.5 mb 0.00 in0.0 mm 0.00 in/hr0.0 mm/hr 0.00 in0.0 mm
06:45 AM 82.3°F27.9°C 61.2°F16.2°C 49% Calm Calm -- 29.78 in1008.5 mb 0.00 in0.0 mm 0.00 in/hr0.0 mm/hr 0.00 in0.0 mm
06:40 AM 82.1°F27.8°C 61.6°F16.4°C 50% Calm Calm -- 29.78 in1008.5 mb 0.00 in0.0 mm 0.00 in/hr0.0 mm/hr 0.00 in0.0 mm
06:35 AM 81.9°F27.7°C 61.4°F16.3°C 50% Calm Calm -- 29.78 in1008.5 mb 0.00 in0.0 mm 0.00 in/hr0.0 mm/hr 0.00 in0.0 mm
06:30 AM 81.8°F27.7°C 60.7°F15.9°C 49% Calm Calm -- 29.78 in1008.5 mb 0.00 in0.0 mm 0.00 in/hr0.0 mm/hr 0.00 in0.0 mm
06:25 AM 81.7°F27.6°C 60.7°F15.9°C 49% Calm Calm -- 29.77 in1008.1 mb 0.00 in0.0 mm 0.00 in/hr0.0 mm/hr 0.00 in0.0 mm
06:20 AM 81.7°F27.6°C 60.1°F15.6°C 48% Calm Calm -- 29.77 in1008.1 mb 0.00 in0.0 mm 0.00 in/hr0.0 mm/hr 0.00 in0.0 mm
06:15 AM 81.7°F27.6°C 60.1°F15.6°C 48% Calm Calm -- 29.77 in1008.1 mb 0.00 in0.0 mm 0.00 in/hr0.0 mm/hr 0.00 in0.0 mm
06:10 AM 81.7°F27.6°C 60.1°F15.6°C 48% Calm Calm -- 29.77 in1008.1 mb 0.00 in0.0 mm 0.00 in/hr0.0 mm/hr 0.00 in0.0 mm
06:05 AM 81.8°F27.7°C 60.2°F15.7°C 48% Calm Calm -- 29.76 in1007.8 mb 0.00 in0.0 mm 0.00 in/hr0.0 mm/hr 0.00 in0.0 mm
06:00 AM 81.9°F27.7°C 59.7°F15.4°C 47% Calm Calm -- 29.76 in1007.8 mb 0.00 in0.0 mm 0.00 in/hr0.0 mm/hr 0.00 in0.0 mm
05:55 AM 82.0°F27.8°C 59.1°F15.1°C 46% Calm Calm -- 29.76 in1007.8 mb 0.00 in0.0 mm 0.00 in/hr0.0 mm/hr 0.00 in0.0 mm
05:50 AM 82.2°F27.9°C 58.7°F14.8°C 45% Calm Calm -- 29.76 in1007.8 mb 0.00 in0.0 mm 0.00 in/hr0.0 mm/hr 0.00 in0.0 mm
05:45 AM 82.3°F27.9°C 58.8°F14.9°C 45% Calm Calm -- 29.76 in1007.8 mb 0.00 in0.0 mm 0.00 in/hr0.0 mm/hr 0.00 in0.0 mm
05:40 AM 82.5°F28.1°C 59.0°F15.0°C 45% Calm Calm -- 29.75 in1007.5 mb 0.00 in0.0 mm 0.00 in/hr0.0 mm/hr 0.00 in0.0 mm
05:35 AM 82.7°F28.2°C 59.2°F15.1°C 45% Calm Calm -- 29.75 in1007.5 mb 0.00 in0.0 mm 0.00 in/hr0.0 mm/hr 0.00 in0.0 mm
05:30 AM 82.9°F28.3°C 58.7°F14.8°C 44% Calm Calm -- 29.75 in1007.5 mb 0.00 in0.0 mm 0.00 in/hr0.0 mm/hr 0.00 in0.0 mm
05:25 AM 83.1°F28.4°C 58.9°F14.9°C 44% Calm Calm -- 29.74 in1007.1 mb 0.00 in0.0 mm 0.00 in/hr0.0 mm/hr 0.00 in0.0 mm
05:20 AM 83.3°F28.5°C 59.1°F15.1°C 44% Calm Calm -- 29.74 in1007.1 mb 0.00 in0.0 mm 0.00 in/hr0.0 mm/hr 0.00 in0.0 mm
05:15 AM 83.5°F28.6°C 58.6°F14.8°C 43% Calm Calm -- 29.73 in1006.8 mb 0.00 in0.0 mm 0.00 in/hr0.0 mm/hr 0.00 in0.0 mm
05:10 AM 83.7°F28.7°C 58.8°F14.9°C 43% Calm Calm -- 29.73 in1006.8 mb 0.00 in0.0 mm 0.00 in/hr0.0 mm/hr 0.00 in0.0 mm
05:05 AM 83.8°F28.8°C 58.9°F14.9°C 43% Calm Calm -- 29.73 in1006.8 mb 0.00 in0.0 mm 0.00 in/hr0.0 mm/hr 0.00 in0.0 mm
05:00 AM 83.9°F28.8°C 58.3°F14.6°C 42% Calm Calm -- 29.73 in1006.8 mb 0.00 in0.0 mm 0.00 in/hr0.0 mm/hr 0.00 in0.0 mm
04:55 AM 84.1°F28.9°C 58.5°F14.7°C 42% Calm Calm -- 29.73 in1006.8 mb 0.00 in0.0 mm 0.00 in/hr0.0 mm/hr 0.00 in0.0 mm
04:50 AM 84.2°F29.0°C 58.6°F14.8°C 42% Calm Calm -- 29.74 in1007.1 mb 0.00 in0.0 mm 0.00 in/hr0.0 mm/hr 0.00 in0.0 mm
04:45 AM 84.3°F29.1°C 58.7°F14.8°C 42% Calm Calm -- 29.73 in1006.8 mb 0.00 in0.0 mm 0.00 in/hr0.0 mm/hr 0.00 in0.0 mm
04:40 AM 84.5°F29.2°C 58.9°F14.9°C 42% Calm Calm -- 29.73 in1006.8 mb 0.00 in0.0 mm 0.00 in/hr0.0 mm/hr 0.00 in0.0 mm
04:35 AM 84.6°F29.2°C 58.9°F14.9°C 42% Calm Calm -- 29.73 in1006.8 mb 0.00 in0.0 mm 0.00 in/hr0.0 mm/hr 0.00 in0.0 mm
04:30 AM 84.7°F29.3°C 59.0°F15.0°C 42% Calm Calm -- 29.73 in1006.8 mb 0.00 in0.0 mm 0.00 in/hr0.0 mm/hr 0.00 in0.0 mm
04:25 AM 84.9°F29.4°C 58.5°F14.7°C 41% Calm Calm -- 29.73 in1006.8 mb 0.00 in0.0 mm 0.00 in/hr0.0 mm/hr 0.00 in0.0 mm
04:20 AM 85.1°F29.5°C 58.7°F14.8°C 41% Calm Calm -- 29.73 in1006.8 mb 0.00 in0.0 mm 0.00 in/hr0.0 mm/hr 0.00 in0.0 mm
04:15 AM 85.4°F29.7°C 58.3°F14.6°C 40% Calm Calm -- 29.73 in1006.8 mb 0.00 in0.0 mm 0.00 in/hr0.0 mm/hr 0.00 in0.0 mm
04:10 AM 85.7°F29.8°C 58.6°F14.8°C 40% Calm Calm -- 29.73 in1006.8 mb 0.00 in0.0 mm 0.00 in/hr0.0 mm/hr 0.00 in0.0 mm
04:05 AM 85.9°F29.9°C 58.0°F14.4°C 39% Calm Calm -- 29.73 in1006.8 mb 0.00 in0.0 mm 0.00 in/hr0.0 mm/hr 0.00 in0.0 mm
04:00 AM 86.0°F30.0°C 58.1°F14.5°C 39% Calm Calm -- 29.73 in1006.8 mb 0.00 in0.0 mm 0.00 in/hr0.0 mm/hr 0.00 in0.0 mm
03:55 AM 86.0°F30.0°C 57.4°F14.1°C 38% Calm Calm -- 29.73 in1006.8 mb 0.00 in0.0 mm 0.00 in/hr0.0 mm/hr 0.00 in0.0 mm
03:50 AM 86.1°F30.1°C 57.5°F14.2°C 38% Calm Calm -- 29.74 in1007.1 mb 0.00 in0.0 mm 0.00 in/hr0.0 mm/hr 0.00 in0.0 mm
03:45 AM 86.1°F30.1°C 57.5°F14.2°C 38% Calm Calm -- 29.74 in1007.1 mb 0.00 in0.0 mm 0.00 in/hr0.0 mm/hr 0.00 in0.0 mm
03:40 AM 86.1°F30.1°C 57.5°F14.2°C 38% Calm Calm -- 29.73 in1006.8 mb 0.00 in0.0 mm 0.00 in/hr0.0 mm/hr 0.00 in0.0 mm
03:35 AM 86.1°F30.1°C 56.7°F13.7°C 37% Calm Calm -- 29.74 in1007.1 mb 0.00 in0.0 mm 0.00 in/hr0.0 mm/hr 0.00 in0.0 mm
03:30 AM 86.2°F30.1°C 56.8°F13.8°C 37% Calm Calm -- 29.74 in1007.1 mb 0.00 in0.0 mm 0.00 in/hr0.0 mm/hr 0.00 in0.0 mm
03:25 AM 86.3°F30.2°C 56.9°F13.8°C 37% Calm Calm -- 29.74 in1007.1 mb 0.00 in0.0 mm 0.00 in/hr0.0 mm/hr 0.00 in0.0 mm
03:20 AM 86.6°F30.3°C 57.2°F14.0°C 37% Calm Calm -- 29.74 in1007.1 mb 0.00 in0.0 mm 0.00 in/hr0.0 mm/hr 0.00 in0.0 mm
03:15 AM 86.8°F30.4°C 58.1°F14.5°C 38% Calm Calm -- 29.74 in1007.1 mb 0.00 in0.0 mm 0.00 in/hr0.0 mm/hr 0.00 in0.0 mm
03:10 AM 87.1°F30.6°C 57.6°F14.2°C 37% Calm Calm -- 29.74 in1007.1 mb 0.00 in0.0 mm 0.00 in/hr0.0 mm/hr 0.00 in0.0 mm
03:05 AM 87.5°F30.8°C 58.0°F14.4°C 37% Calm Calm -- 29.74 in1007.1 mb 0.00 in0.0 mm 0.00 in/hr0.0 mm/hr 0.00 in0.0 mm
03:00 AM 87.8°F31.0°C 58.2°F14.6°C 37% Calm Calm -- 29.74 in1007.1 mb 0.00 in0.0 mm 0.00 in/hr0.0 mm/hr 0.00 in0.0 mm
02:55 AM 88.1°F31.2°C 57.7°F14.3°C 36% Calm Calm -- 29.74 in1007.1 mb 0.00 in0.0 mm 0.00 in/hr0.0 mm/hr 0.00 in0.0 mm
02:50 AM 88.7°F31.5°C 58.3°F14.6°C 36% Calm Calm -- 29.75 in1007.5 mb 0.00 in0.0 mm 0.00 in/hr0.0 mm/hr 0.00 in0.0 mm
02:45 AM 89.0°F31.7°C 57.8°F14.3°C 35% Calm Calm -- 29.75 in1007.5 mb 0.00 in0.0 mm 0.00 in/hr0.0 mm/hr 0.00 in0.0 mm
02:40 AM 89.2°F31.8°C 57.9°F14.4°C 35% Calm Calm -- 29.75 in1007.5 mb 0.00 in0.0 mm 0.00 in/hr0.0 mm/hr 0.00 in0.0 mm
02:35 AM 89.4°F31.9°C 57.3°F14.1°C 34% Calm Calm -- 29.75 in1007.5 mb 0.00 in0.0 mm 0.00 in/hr0.0 mm/hr 0.00 in0.0 mm
02:30 AM 89.7°F32.1°C 57.6°F14.2°C 34% Calm Calm -- 29.75 in1007.5 mb 0.00 in0.0 mm 0.00 in/hr0.0 mm/hr 0.00 in0.0 mm
02:25 AM 89.9°F32.2°C 57.7°F14.3°C 34% Calm Calm -- 29.75 in1007.5 mb 0.00 in0.0 mm 0.00 in/hr0.0 mm/hr 0.00 in0.0 mm
02:20 AM 90.2°F32.3°C 57.2°F14.0°C 33% Calm Calm -- 29.75 in1007.5 mb 0.00 in0.0 mm 0.00 in/hr0.0 mm/hr 0.00 in0.0 mm
02:15 AM 90.4°F32.4°C 57.3°F14.1°C 33% Calm Calm -- 29.75 in1007.5 mb 0.00 in0.0 mm 0.00 in/hr0.0 mm/hr 0.00 in0.0 mm
02:10 AM 90.6°F32.6°C 57.5°F14.2°C 33% Calm Calm -- 29.76 in1007.8 mb 0.00 in0.0 mm 0.00 in/hr0.0 mm/hr 0.00 in0.0 mm
02:05 AM 90.8°F32.7°C 57.7°F14.3°C 33% Calm Calm -- 29.76 in1007.8 mb 0.00 in0.0 mm 0.00 in/hr0.0 mm/hr 0.00 in0.0 mm
02:00 AM 91.0°F32.8°C 57.9°F14.4°C 33% Calm Calm -- 29.76 in1007.8 mb 0.00 in0.0 mm 0.00 in/hr0.0 mm/hr 0.00 in0.0 mm
01:55 AM 91.3°F32.9°C 57.3°F14.1°C 32% Calm Calm -- 29.76 in1007.8 mb 0.00 in0.0 mm 0.00 in/hr0.0 mm/hr 0.00 in0.0 mm
01:50 AM 91.4°F33.0°C 57.3°F14.1°C 32% Calm Calm -- 29.76 in1007.8 mb 0.00 in0.0 mm 0.00 in/hr0.0 mm/hr 0.00 in0.0 mm
01:45 AM 91.6°F33.1°C 57.5°F14.2°C 32% Calm Calm -- 29.77 in1008.1 mb 0.00 in0.0 mm 0.00 in/hr0.0 mm/hr 0.00 in0.0 mm
01:40 AM 91.8°F33.2°C 57.7°F14.3°C 32% Calm Calm -- 29.76 in1007.8 mb 0.00 in0.0 mm 0.00 in/hr0.0 mm/hr 0.00 in0.0 mm
01:35 AM 91.9°F33.3°C 57.8°F14.3°C 32% 1.0 mph ESE1.6 kmh ESE -- 29.76 in1007.8 mb 0.00 in0.0 mm 0.00 in/hr0.0 mm/hr 0.00 in0.0 mm
01:30 AM 92.0°F33.3°C 57.0°F13.9°C 31% Calm Calm -- 29.77 in1008.1 mb 0.00 in0.0 mm 0.00 in/hr0.0 mm/hr 0.00 in0.0 mm
01:25 AM 92.1°F33.4°C 57.1°F13.9°C 31% Calm Calm -- 29.76 in1007.8 mb 0.00 in0.0 mm 0.00 in/hr0.0 mm/hr 0.00 in0.0 mm
01:20 AM 92.1°F33.4°C 57.1°F13.9°C 31% Calm Calm -- 29.77 in1008.1 mb 0.00 in0.0 mm 0.00 in/hr0.0 mm/hr 0.00 in0.0 mm
01:15 AM 92.1°F33.4°C 57.1°F13.9°C 31% 2.0 mph E3.2 kmh E -- 29.77 in1008.1 mb 0.00 in0.0 mm 0.00 in/hr0.0 mm/hr 0.00 in0.0 mm
01:10 AM 92.1°F33.4°C 57.1°F13.9°C 31% Calm Calm -- 29.77 in1008.1 mb 0.00 in0.0 mm 0.00 in/hr0.0 mm/hr 0.00 in0.0 mm
01:05 AM 92.1°F33.4°C 57.1°F13.9°C 31% Calm Calm -- 29.77 in1008.1 mb 0.00 in0.0 mm 0.00 in/hr0.0 mm/hr 0.00 in0.0 mm
01:00 AM 92.1°F33.4°C 57.1°F13.9°C 31% Calm Calm -- 29.78 in1008.5 mb 0.00 in0.0 mm 0.00 in/hr0.0 mm/hr 0.00 in0.0 mm
12:55 AM 92.2°F33.4°C 57.2°F14.0°C 31% Calm Calm -- 29.78 in1008.5 mb 0.00 in0.0 mm 0.00 in/hr0.0 mm/hr 0.00 in0.0 mm
12:50 AM 92.2°F33.4°C 57.2°F14.0°C 31% Calm Calm -- 29.77 in1008.1 mb 0.00 in0.0 mm 0.00 in/hr0.0 mm/hr 0.00 in0.0 mm
12:45 AM 92.3°F33.5°C 57.2°F14.0°C 31% Calm Calm -- 29.78 in1008.5 mb 0.00 in0.0 mm 0.00 in/hr0.0 mm/hr 0.00 in0.0 mm
12:40 AM 92.4°F33.6°C 57.3°F14.1°C 31% Calm Calm -- 29.78 in1008.5 mb 0.00 in0.0 mm 0.00 in/hr0.0 mm/hr 0.00 in0.0 mm
12:35 AM 92.4°F33.6°C 57.3°F14.1°C 31% Calm Calm -- 29.78 in1008.5 mb 0.00 in0.0 mm 0.00 in/hr0.0 mm/hr 0.00 in0.0 mm
12:30 AM 92.5°F33.6°C 57.4°F14.1°C 31% Calm Calm -- 29.78 in1008.5 mb 0.00 in0.0 mm 0.00 in/hr0.0 mm/hr 0.00 in0.0 mm
12:25 AM 92.6°F33.7°C 57.5°F14.2°C 31% 1.0 mph ENE1.6 kmh ENE -- 29.78 in1008.5 mb 0.00 in0.0 mm 0.00 in/hr0.0 mm/hr 0.00 in0.0 mm
12:20 AM 92.7°F33.7°C 57.6°F14.2°C 31% Calm Calm -- 29.78 in1008.5 mb 0.00 in0.0 mm 0.00 in/hr0.0 mm/hr 0.00 in0.0 mm
12:15 AM 92.8°F33.8°C 56.8°F13.8°C 30% Calm Calm -- 29.78 in1008.5 mb 0.00 in0.0 mm 0.00 in/hr0.0 mm/hr 0.00 in0.0 mm
12:10 AM 92.9°F33.8°C 57.8°F14.3°C 31% Calm Calm -- 29.78 in1008.5 mb 0.00 in0.0 mm 0.00 in/hr0.0 mm/hr 0.00 in0.0 mm
12:05 AM 93.1°F33.9°C 57.0°F13.9°C 30% 2.0 mph NNW3.2 kmh NNW -- 29.78 in1008.5 mb 0.00 in0.0 mm 0.00 in/hr0.0 mm/hr 0.00 in0.0 mm
12:00 AM 93.3°F34.1°C 57.2°F14.0°C 30% 1.0 mph ENE1.6 kmh ENE -- 29.78 in1008.5 mb 0.00 in0.0 mm 0.00 in/hr0.0 mm/hr 0.00 in0.0 mm